WATTWAPP

Guest
Details From WATT - Kupang El Tari
To WAPP - Ambon Pattimura
Flight Number -
Tags generated
Created
Modified
Stats Distance 496 nm / 919 km
Max Altitude 35,000 ft / 10,668 m
Waypoints 5
Social Downloads 0
Likes 0
Share VATSIM

Download

Looking for another format? Having issues loading an existing format? Contact us
Advertisement - Login to hide

Notes

Basic altitude profile: - Ascent Rate: 2500ft/min - Ascent Speed: 250kts - Cruise Altitude: 33000ft - Cruise Speed: 340kts - Descent Rate: 1500ft/min - Descent Speed: 250kts Options: - Use NATs: yes - Use PACOTS: yes - Use low airways: yes - Use high airways: yes

Route

WATT KPG W43 BACAU W55 BENTO WAPP

ID Type Via Altitude Latitude Longitude Leg Dist Tot Dist Heading (true) Name
O WATT APT - 0 ft / 0 m -10.17340˚ 123.66771˚ - 0 nm - Kupang El Tari
KPG VOR - 200 ft / 61 m -10.17400˚ 123.67758˚ 0 nm 0 nm 94° / 94° KUPANG VOR-DME
BACAU FIX W43 (AWY-LO) 35,000 ft / 10,668 m -8.48500˚ 126.40000˚ 190 nm 191 nm 58° / 58° -
BENTO FIX W55 (AWY-HI) 23,500 ft / 7,163 m -5.23831˚ 127.77586˚ 211 nm 402 nm 23° / 23° -
O WAPP APT - 0 ft / 0 m -3.71026˚ 128.08913˚ 93 nm 496 nm 12° / 12° Ambon Pattimura

Altitude Profile

Advertisement - Login to hide

Weather


0- 5 10 15 20 25 30 35+ Temperature / ° C

Clouds and Precipitation
Forecast for 2017-12-12 00:00 UTC. Updated a minute ago

Ground ~20,000 ft ~40,000 ft Winds

WATT

Details ICAO WATT (KOE)
Name Kupang El Tari
Region Indonesia
Timezone Asia/Makassar (UTC+8.0)
Stats Elevation 335 ft / 102 m (AMSL)
Location -10.173397° 123.667705°
Runways 2
Magnetic Variation 1.506° E

METAR

WATT 112300Z 14004KT 9999 FEW017 28/25 Q1011 NOSIG

Decode

TAF

Not found

Departure Runways

ID Width Length Bearing (true) Bearing (mag) Surface Threshold Offset Overrun Length
07 148 ft / 45 m 8,222 ft / 2,506 m 76.68° 75.17° Asphalt 0 ft / 0 m 179 ft / 55 m
12 210 ft / 64 m 4,179 ft / 1,274 m 125.35° 123.84° Dirt 0 ft / 0 m 0 ft / 0 m
25 148 ft / 45 m 8,222 ft / 2,506 m 256.68° 255.17° Asphalt 0 ft / 0 m 197 ft / 60 m
30 210 ft / 64 m 4,179 ft / 1,274 m 305.35° 303.84° Dirt 0 ft / 0 m 0 ft / 0 m

WAPP

Details ICAO WAPP (AMQ)
Name Ambon Pattimura
Region Indonesia
Timezone Asia/Jayapura (UTC+9.0)
Stats Elevation 33 ft / 10 m (AMSL)
Location -3.710262° 128.089135°
Runways 1
Magnetic Variation 1.186° E

METAR

WAPP 112230Z 35005KT 9999 FEW018 27/24 Q1009 NOSIG

Decode

TAF

Not found

Destination Runways

ID Width Length Bearing (true) Bearing (mag) Surface Threshold Offset Overrun Length
04 148 ft / 45 m 8,235 ft / 2,510 m 44.92° 43.73° Asphalt 0 ft / 0 m 200 ft / 61 m
22 148 ft / 45 m 8,235 ft / 2,510 m 224.92° 223.73° Asphalt 0 ft / 0 m 200 ft / 61 m

Popular Alternatives